sensor_id;sensor_type;location;lat;lon;timestamp;P1;durP1;ratioP1;P2;durP2;ratioP2
34765;SDS011;20984;43.508;1.504;2023-03-01T00:01:25;35.42;;;24.48;;
34765;SDS011;20984;43.508;1.504;2023-03-01T00:03:53;36.03;;;23.98;;
34765;SDS011;20984;43.508;1.504;2023-03-01T00:06:19;30.90;;;22.00;;
34765;SDS011;20984;43.508;1.504;2023-03-01T00:08:46;29.95;;;19.73;;
34765;SDS011;20984;43.508;1.504;2023-03-01T00:11:13;25.30;;;19.48;;
34765;SDS011;20984;43.508;1.504;2023-03-01T00:13:41;29.10;;;20.15;;
34765;SDS011;20984;43.508;1.504;2023-03-01T00:16:12;27.70;;;19.85;;
34765;SDS011;20984;43.508;1.504;2023-03-01T00:18:40;28.15;;;19.58;;
34765;SDS011;20984;43.508;1.504;2023-03-01T00:21:06;23.20;;;18.90;;
34765;SDS011;20984;43.508;1.504;2023-03-01T00:23:33;20.33;;;15.43;;
34765;SDS011;20984;43.508;1.504;2023-03-01T00:25:59;19.98;;;14.70;;
34765;SDS011;20984;43.508;1.504;2023-03-01T00:28:25;16.27;;;14.57;;
34765;SDS011;20984;43.508;1.504;2023-03-01T00:30:51;19.83;;;15.15;;
34765;SDS011;20984;43.508;1.504;2023-03-01T00:33:17;19.88;;;15.73;;
34765;SDS011;20984;43.508;1.504;2023-03-01T00:35:43;21.60;;;16.67;;
34765;SDS011;20984;43.508;1.504;2023-03-01T00:38:09;21.60;;;15.88;;
34765;SDS011;20984;43.508;1.504;2023-03-01T00:40:35;20.30;;;15.80;;
34765;SDS011;20984;43.508;1.504;2023-03-01T00:43:01;20.05;;;14.90;;
34765;SDS011;20984;43.508;1.504;2023-03-01T00:45:28;18.80;;;15.93;;
34765;SDS011;20984;43.508;1.504;2023-03-01T00:47:54;21.75;;;16.02;;
34765;SDS011;20984;43.508;1.504;2023-03-01T00:50:20;19.88;;;16.10;;
34765;SDS011;20984;43.508;1.504;2023-03-01T00:52:45;23.35;;;15.88;;
34765;SDS011;20984;43.508;1.504;2023-03-01T00:55:11;18.60;;;16.05;;
34765;SDS011;20984;43.508;1.504;2023-03-01T00:57:37;21.60;;;16.73;;
34765;SDS011;20984;43.508;1.504;2023-03-01T01:00:04;21.73;;;16.63;;
34765;SDS011;20984;43.508;1.504;2023-03-01T01:02:34;17.02;;;15.27;;
34765;SDS011;20984;43.508;1.504;2023-03-01T01:05:00;23.58;;;16.77;;
34765;SDS011;20984;43.508;1.504;2023-03-01T01:07:25;21.00;;;16.08;;
34765;SDS011;20984;43.508;1.504;2023-03-01T01:09:51;17.77;;;15.60;;
34765;SDS011;20984;43.508;1.504;2023-03-01T01:12:17;19.17;;;15.45;;
34765;SDS011;20984;43.508;1.504;2023-03-01T01:14:43;18.92;;;15.15;;
34765;SDS011;20984;43.508;1.504;2023-03-01T01:17:08;17.05;;;14.80;;
34765;SDS011;20984;43.508;1.504;2023-03-01T01:19:34;23.35;;;16.35;;
34765;SDS011;20984;43.508;1.504;2023-03-01T01:22:00;18.67;;;15.15;;
34765;SDS011;20984;43.508;1.504;2023-03-01T01:24:25;19.98;;;16.40;;
34765;SDS011;20984;43.508;1.504;2023-03-01T01:26:51;18.83;;;16.83;;
34765;SDS011;20984;43.508;1.504;2023-03-01T01:29:17;21.70;;;16.75;;
34765;SDS011;20984;43.508;1.504;2023-03-01T01:31:43;21.42;;;16.30;;
34765;SDS011;20984;43.508;1.504;2023-03-01T01:34:12;19.67;;;16.48;;
34765;SDS011;20984;43.508;1.504;2023-03-01T01:36:40;19.98;;;17.42;;
34765;SDS011;20984;43.508;1.504;2023-03-01T01:39:06;22.33;;;18.70;;
34765;SDS011;20984;43.508;1.504;2023-03-01T01:41:32;25.30;;;18.40;;
34765;SDS011;20984;43.508;1.504;2023-03-01T01:44:18;18.55;;;16.52;;
34765;SDS011;20984;43.508;1.504;2023-03-01T01:54:25;23.98;;;17.13;;
34765;SDS011;20984;43.508;1.504;2023-03-01T01:56:58;23.02;;;17.65;;
34765;SDS011;20984;43.508;1.504;2023-03-01T01:59:28;23.88;;;20.02;;
34765;SDS011;20984;43.508;1.504;2023-03-01T02:01:57;26.55;;;19.45;;
34765;SDS011;20984;43.508;1.504;2023-03-01T02:04:25;26.15;;;19.63;;
34765;SDS011;20984;43.508;1.504;2023-03-01T02:06:53;28.30;;;20.65;;
34765;SDS011;20984;43.508;1.504;2023-03-01T02:09:25;27.88;;;19.52;;
34765;SDS011;20984;43.508;1.504;2023-03-01T02:11:51;24.58;;;18.52;;
34765;SDS011;20984;43.508;1.504;2023-03-01T02:14:18;22.85;;;18.95;;
34765;SDS011;20984;43.508;1.504;2023-03-01T02:16:44;24.77;;;19.15;;
34765;SDS011;20984;43.508;1.504;2023-03-01T02:19:13;21.80;;;18.13;;
34765;SDS011;20984;43.508;1.504;2023-03-01T02:22:08;26.00;;;20.88;;
34765;SDS011;20984;43.508;1.504;2023-03-01T02:24:53;22.67;;;18.10;;
34765;SDS011;20984;43.508;1.504;2023-03-01T02:27:22;21.40;;;19.02;;
34765;SDS011;20984;43.508;1.504;2023-03-01T02:29:55;22.20;;;18.80;;
34765;SDS011;20984;43.508;1.504;2023-03-01T02:32:21;25.30;;;20.33;;
34765;SDS011;20984;43.508;1.504;2023-03-01T02:34:51;25.80;;;19.55;;
34765;SDS011;20984;43.508;1.504;2023-03-01T02:37:18;23.70;;;19.48;;
34765;SDS011;20984;43.508;1.504;2023-03-01T02:39:51;26.33;;;18.30;;
34765;SDS011;20984;43.508;1.504;2023-03-01T02:42:24;24.65;;;21.25;;
34765;SDS011;20984;43.508;1.504;2023-03-01T02:44:55;23.52;;;19.13;;
34765;SDS011;20984;43.508;1.504;2023-03-01T02:47:21;25.02;;;20.30;;
34765;SDS011;20984;43.508;1.504;2023-03-01T02:49:47;23.38;;;18.90;;
34765;SDS011;20984;43.508;1.504;2023-03-01T02:52:37;26.50;;;19.38;;
34765;SDS011;20984;43.508;1.504;2023-03-01T02:55:15;26.85;;;20.90;;
34765;SDS011;20984;43.508;1.504;2023-03-01T02:57:43;22.60;;;18.00;;
34765;SDS011;20984;43.508;1.504;2023-03-01T03:00:14;24.10;;;18.75;;
34765;SDS011;20984;43.508;1.504;2023-03-01T03:02:45;24.02;;;18.73;;
34765;SDS011;20984;43.508;1.504;2023-03-01T03:05:13;21.60;;;18.55;;
34765;SDS011;20984;43.508;1.504;2023-03-01T03:07:44;22.23;;;18.98;;
34765;SDS011;20984;43.508;1.504;2023-03-01T03:10:14;23.33;;;19.00;;
34765;SDS011;20984;43.508;1.504;2023-03-01T03:12:41;22.98;;;19.35;;
34765;SDS011;20984;43.508;1.504;2023-03-01T03:15:08;26.50;;;20.00;;
34765;SDS011;20984;43.508;1.504;2023-03-01T03:17:35;24.40;;;19.05;;
34765;SDS011;20984;43.508;1.504;2023-03-01T03:20:02;25.15;;;20.98;;
34765;SDS011;20984;43.508;1.504;2023-03-01T03:22:29;27.63;;;19.83;;
34765;SDS011;20984;43.508;1.504;2023-03-01T03:24:56;21.58;;;18.13;;
34765;SDS011;20984;43.508;1.504;2023-03-01T03:27:21;25.40;;;19.77;;
34765;SDS011;20984;43.508;1.504;2023-03-01T03:29:47;22.50;;;19.55;;
34765;SDS011;20984;43.508;1.504;2023-03-01T03:32:12;23.02;;;19.98;;
34765;SDS011;20984;43.508;1.504;2023-03-01T03:34:38;22.95;;;19.05;;
34765;SDS011;20984;43.508;1.504;2023-03-01T03:37:04;24.40;;;20.02;;
34765;SDS011;20984;43.508;1.504;2023-03-01T03:39:49;21.88;;;18.83;;
34765;SDS011;20984;43.508;1.504;2023-03-01T03:42:19;22.60;;;18.85;;
34765;SDS011;20984;43.508;1.504;2023-03-01T03:44:46;21.10;;;19.00;;
34765;SDS011;20984;43.508;1.504;2023-03-01T03:47:12;21.52;;;19.23;;
34765;SDS011;20984;43.508;1.504;2023-03-01T03:49:38;24.10;;;19.45;;
34765;SDS011;20984;43.508;1.504;2023-03-01T03:52:03;24.80;;;20.48;;
34765;SDS011;20984;43.508;1.504;2023-03-01T03:54:29;23.08;;;18.35;;
34765;SDS011;20984;43.508;1.504;2023-03-01T03:56:55;21.95;;;19.58;;
34765;SDS011;20984;43.508;1.504;2023-03-01T03:59:20;20.92;;;17.92;;
34765;SDS011;20984;43.508;1.504;2023-03-01T04:01:46;22.25;;;18.13;;
34765;SDS011;20984;43.508;1.504;2023-03-01T04:04:12;20.50;;;18.02;;
34765;SDS011;20984;43.508;1.504;2023-03-01T04:06:38;23.52;;;18.55;;
34765;SDS011;20984;43.508;1.504;2023-03-01T04:09:04;22.63;;;18.92;;
34765;SDS011;20984;43.508;1.504;2023-03-01T04:11:29;22.05;;;18.98;;
34765;SDS011;20984;43.508;1.504;2023-03-01T04:13:56;22.75;;;18.65;;
34765;SDS011;20984;43.508;1.504;2023-03-01T04:16:24;20.40;;;18.17;;
34765;SDS011;20984;43.508;1.504;2023-03-01T04:18:49;27.42;;;18.83;;
34765;SDS011;20984;43.508;1.504;2023-03-01T04:21:15;23.70;;;19.25;;
34765;SDS011;20984;43.508;1.504;2023-03-01T04:23:42;24.27;;;18.30;;
34765;SDS011;20984;43.508;1.504;2023-03-01T04:26:08;20.98;;;18.25;;
34765;SDS011;20984;43.508;1.504;2023-03-01T04:28:35;26.13;;;19.50;;
34765;SDS011;20984;43.508;1.504;2023-03-01T04:31:06;24.52;;;19.00;;
34765;SDS011;20984;43.508;1.504;2023-03-01T04:33:46;23.70;;;18.90;;
34765;SDS011;20984;43.508;1.504;2023-03-01T04:36:14;21.73;;;19.42;;
34765;SDS011;20984;43.508;1.504;2023-03-01T04:38:42;22.58;;;20.15;;
34765;SDS011;20984;43.508;1.504;2023-03-01T04:41:12;26.42;;;20.65;;
34765;SDS011;20984;43.508;1.504;2023-03-01T04:43:38;26.98;;;19.30;;
34765;SDS011;20984;43.508;1.504;2023-03-01T04:46:04;25.73;;;19.15;;
34765;SDS011;20984;43.508;1.504;2023-03-01T04:48:36;26.05;;;20.83;;
34765;SDS011;20984;43.508;1.504;2023-03-01T04:51:03;22.90;;;19.00;;
34765;SDS011;20984;43.508;1.504;2023-03-01T04:53:30;24.73;;;20.33;;
34765;SDS011;20984;43.508;1.504;2023-03-01T04:55:57;23.58;;;21.08;;
34765;SDS011;20984;43.508;1.504;2023-03-01T04:58:24;32.30;;;20.85;;
34765;SDS011;20984;43.508;1.504;2023-03-01T05:00:53;30.25;;;22.15;;
34765;SDS011;20984;43.508;1.504;2023-03-01T05:03:20;28.25;;;22.55;;
34765;SDS011;20984;43.508;1.504;2023-03-01T05:05:47;27.48;;;21.02;;
34765;SDS011;20984;43.508;1.504;2023-03-01T05:08:14;27.98;;;21.95;;
34765;SDS011;20984;43.508;1.504;2023-03-01T05:10:43;27.65;;;20.48;;
34765;SDS011;20984;43.508;1.504;2023-03-01T05:13:11;27.42;;;21.75;;
34765;SDS011;20984;43.508;1.504;2023-03-01T05:15:38;26.27;;;18.73;;
34765;SDS011;20984;43.508;1.504;2023-03-01T05:18:04;24.15;;;21.10;;
34765;SDS011;20984;43.508;1.504;2023-03-01T05:20:36;24.00;;;19.40;;
34765;SDS011;20984;43.508;1.504;2023-03-01T05:23:03;23.38;;;19.85;;
34765;SDS011;20984;43.508;1.504;2023-03-01T05:25:30;38.05;;;27.83;;
34765;SDS011;20984;43.508;1.504;2023-03-01T05:28:01;39.60;;;30.02;;
34765;SDS011;20984;43.508;1.504;2023-03-01T05:30:30;43.35;;;27.10;;
34765;SDS011;20984;43.508;1.504;2023-03-01T05:32:57;39.70;;;26.60;;
34765;SDS011;20984;43.508;1.504;2023-03-01T05:35:23;32.17;;;24.33;;
34765;SDS011;20984;43.508;1.504;2023-03-01T05:37:49;30.15;;;22.90;;
34765;SDS011;20984;43.508;1.504;2023-03-01T05:40:16;22.52;;;19.33;;
34765;SDS011;20984;43.508;1.504;2023-03-01T05:42:45;27.42;;;20.70;;
34765;SDS011;20984;43.508;1.504;2023-03-01T05:45:13;27.20;;;21.15;;
34765;SDS011;20984;43.508;1.504;2023-03-01T05:47:40;23.15;;;19.00;;
34765;SDS011;20984;43.508;1.504;2023-03-01T05:50:31;24.80;;;20.38;;
34765;SDS011;20984;43.508;1.504;2023-03-01T05:53:07;22.75;;;19.23;;
34765;SDS011;20984;43.508;1.504;2023-03-01T05:55:44;24.27;;;20.33;;
34765;SDS011;20984;43.508;1.504;2023-03-01T05:58:13;21.48;;;19.23;;
34765;SDS011;20984;43.508;1.504;2023-03-01T06:00:41;26.77;;;20.08;;
34765;SDS011;20984;43.508;1.504;2023-03-01T06:03:08;25.95;;;20.35;;
34765;SDS011;20984;43.508;1.504;2023-03-01T06:05:36;27.65;;;22.63;;
34765;SDS011;20984;43.508;1.504;2023-03-01T06:08:02;35.45;;;23.55;;
34765;SDS011;20984;43.508;1.504;2023-03-01T06:10:28;34.20;;;22.92;;
34765;SDS011;20984;43.508;1.504;2023-03-01T06:12:54;34.22;;;24.38;;
34765;SDS011;20984;43.508;1.504;2023-03-01T06:15:20;46.95;;;29.20;;
34765;SDS011;20984;43.508;1.504;2023-03-01T06:17:46;33.92;;;24.05;;
34765;SDS011;20984;43.508;1.504;2023-03-01T06:20:14;32.97;;;24.90;;
34765;SDS011;20984;43.508;1.504;2023-03-01T06:22:42;31.15;;;24.38;;
34765;SDS011;20984;43.508;1.504;2023-03-01T06:25:08;30.60;;;23.30;;
34765;SDS011;20984;43.508;1.504;2023-03-01T06:27:35;37.67;;;25.50;;
34765;SDS011;20984;43.508;1.504;2023-03-01T06:30:01;39.90;;;28.08;;
34765;SDS011;20984;43.508;1.504;2023-03-01T06:32:27;43.30;;;34.10;;
34765;SDS011;20984;43.508;1.504;2023-03-01T06:34:52;53.40;;;38.60;;
34765;SDS011;20984;43.508;1.504;2023-03-01T06:37:18;40.00;;;28.95;;
34765;SDS011;20984;43.508;1.504;2023-03-01T06:39:44;37.85;;;27.75;;
34765;SDS011;20984;43.508;1.504;2023-03-01T06:42:09;32.85;;;25.58;;
34765;SDS011;20984;43.508;1.504;2023-03-01T06:44:36;36.60;;;27.45;;
34765;SDS011;20984;43.508;1.504;2023-03-01T06:47:02;34.67;;;26.50;;
34765;SDS011;20984;43.508;1.504;2023-03-01T06:49:28;34.28;;;25.17;;
34765;SDS011;20984;43.508;1.504;2023-03-01T06:51:55;34.10;;;24.83;;
34765;SDS011;20984;43.508;1.504;2023-03-01T06:54:21;35.25;;;25.67;;
34765;SDS011;20984;43.508;1.504;2023-03-01T06:56:47;35.90;;;27.70;;
34765;SDS011;20984;43.508;1.504;2023-03-01T06:59:14;38.58;;;32.72;;
34765;SDS011;20984;43.508;1.504;2023-03-01T07:01:40;38.25;;;28.05;;
34765;SDS011;20984;43.508;1.504;2023-03-01T07:04:06;33.30;;;27.08;;
34765;SDS011;20984;43.508;1.504;2023-03-01T07:06:32;31.33;;;26.30;;
34765;SDS011;20984;43.508;1.504;2023-03-01T07:08:57;35.97;;;28.58;;
34765;SDS011;20984;43.508;1.504;2023-03-01T07:11:23;37.38;;;27.48;;
34765;SDS011;20984;43.508;1.504;2023-03-01T07:13:49;30.98;;;26.67;;
34765;SDS011;20984;43.508;1.504;2023-03-01T07:16:14;33.30;;;26.52;;
34765;SDS011;20984;43.508;1.504;2023-03-01T07:18:40;40.30;;;28.02;;
34765;SDS011;20984;43.508;1.504;2023-03-01T07:21:07;38.88;;;26.20;;
34765;SDS011;20984;43.508;1.504;2023-03-01T07:23:33;34.20;;;25.15;;
34765;SDS011;20984;43.508;1.504;2023-03-01T07:25:59;30.50;;;24.63;;
34765;SDS011;20984;43.508;1.504;2023-03-01T07:28:25;31.42;;;25.27;;
34765;SDS011;20984;43.508;1.504;2023-03-01T07:30:51;45.55;;;31.73;;
34765;SDS011;20984;43.508;1.504;2023-03-01T07:33:17;37.95;;;27.90;;
34765;SDS011;20984;43.508;1.504;2023-03-01T07:35:43;40.60;;;29.35;;
34765;SDS011;20984;43.508;1.504;2023-03-01T07:38:08;43.40;;;29.05;;
34765;SDS011;20984;43.508;1.504;2023-03-01T07:40:34;33.45;;;27.30;;
34765;SDS011;20984;43.508;1.504;2023-03-01T07:43:00;35.95;;;26.75;;
34765;SDS011;20984;43.508;1.504;2023-03-01T07:45:26;37.30;;;24.67;;
34765;SDS011;20984;43.508;1.504;2023-03-01T07:47:52;30.92;;;23.95;;
34765;SDS011;20984;43.508;1.504;2023-03-01T07:50:19;29.42;;;23.70;;
34765;SDS011;20984;43.508;1.504;2023-03-01T07:52:45;29.23;;;24.52;;
34765;SDS011;20984;43.508;1.504;2023-03-01T07:55:12;32.00;;;25.58;;
34765;SDS011;20984;43.508;1.504;2023-03-01T07:57:38;34.50;;;25.35;;
34765;SDS011;20984;43.508;1.504;2023-03-01T08:00:04;31.63;;;24.40;;
34765;SDS011;20984;43.508;1.504;2023-03-01T08:02:30;32.70;;;24.77;;
34765;SDS011;20984;43.508;1.504;2023-03-01T08:04:56;30.60;;;24.13;;
34765;SDS011;20984;43.508;1.504;2023-03-01T08:07:22;31.25;;;24.67;;
34765;SDS011;20984;43.508;1.504;2023-03-01T08:09:48;29.80;;;24.35;;
34765;SDS011;20984;43.508;1.504;2023-03-01T08:12:13;30.27;;;24.63;;
34765;SDS011;20984;43.508;1.504;2023-03-01T08:14:41;30.25;;;25.27;;
34765;SDS011;20984;43.508;1.504;2023-03-01T08:17:07;31.92;;;25.75;;
34765;SDS011;20984;43.508;1.504;2023-03-01T08:19:32;29.17;;;24.63;;
34765;SDS011;20984;43.508;1.504;2023-03-01T08:21:59;31.83;;;23.90;;
34765;SDS011;20984;43.508;1.504;2023-03-01T08:24:28;32.35;;;25.15;;
34765;SDS011;20984;43.508;1.504;2023-03-01T08:26:54;39.88;;;25.23;;
34765;SDS011;20984;43.508;1.504;2023-03-01T08:29:20;32.85;;;25.10;;
34765;SDS011;20984;43.508;1.504;2023-03-01T08:31:47;40.10;;;25.80;;
34765;SDS011;20984;43.508;1.504;2023-03-01T08:34:15;33.25;;;24.95;;
34765;SDS011;20984;43.508;1.504;2023-03-01T08:36:42;34.20;;;25.55;;
34765;SDS011;20984;43.508;1.504;2023-03-01T08:39:10;29.80;;;24.23;;
34765;SDS011;20984;43.508;1.504;2023-03-01T08:41:38;34.53;;;25.33;;
34765;SDS011;20984;43.508;1.504;2023-03-01T08:44:04;30.58;;;24.17;;
34765;SDS011;20984;43.508;1.504;2023-03-01T08:46:33;33.78;;;23.63;;
34765;SDS011;20984;43.508;1.504;2023-03-01T08:49:07;29.15;;;23.00;;
34765;SDS011;20984;43.508;1.504;2023-03-01T08:51:42;30.08;;;23.02;;
34765;SDS011;20984;43.508;1.504;2023-03-01T08:54:12;31.55;;;20.50;;
34765;SDS011;20984;43.508;1.504;2023-03-01T08:56:40;17.80;;;14.57;;
34765;SDS011;20984;43.508;1.504;2023-03-01T08:59:06;16.88;;;14.27;;
34765;SDS011;20984;43.508;1.504;2023-03-01T09:01:32;16.13;;;12.88;;
34765;SDS011;20984;43.508;1.504;2023-03-01T09:03:58;14.32;;;12.90;;
34765;SDS011;20984;43.508;1.504;2023-03-01T09:06:23;18.10;;;14.32;;
34765;SDS011;20984;43.508;1.504;2023-03-01T09:08:50;14.20;;;12.70;;
34765;SDS011;20984;43.508;1.504;2023-03-01T09:11:16;14.00;;;12.60;;
34765;SDS011;20984;43.508;1.504;2023-03-01T09:13:45;15.90;;;13.68;;
34765;SDS011;20984;43.508;1.504;2023-03-01T09:16:12;13.93;;;12.52;;
34765;SDS011;20984;43.508;1.504;2023-03-01T09:18:39;15.20;;;13.60;;
34765;SDS011;20984;43.508;1.504;2023-03-01T09:23:38;15.13;;;13.37;;
34765;SDS011;20984;43.508;1.504;2023-03-01T09:26:06;15.02;;;13.48;;
34765;SDS011;20984;43.508;1.504;2023-03-01T09:28:37;16.88;;;14.30;;
34765;SDS011;20984;43.508;1.504;2023-03-01T09:31:04;15.77;;;13.10;;
34765;SDS011;20984;43.508;1.504;2023-03-01T09:33:30;14.23;;;12.82;;
34765;SDS011;20984;43.508;1.504;2023-03-01T09:36:00;16.08;;;13.15;;
34765;SDS011;20984;43.508;1.504;2023-03-01T09:38:28;16.13;;;12.65;;
34765;SDS011;20984;43.508;1.504;2023-03-01T09:40:54;13.85;;;11.73;;
34765;SDS011;20984;43.508;1.504;2023-03-01T09:45:53;13.55;;;12.10;;
34765;SDS011;20984;43.508;1.504;2023-03-01T09:48:21;19.77;;;11.77;;
34765;SDS011;20984;43.508;1.504;2023-03-01T09:50:51;13.60;;;12.20;;
34765;SDS011;20984;43.508;1.504;2023-03-01T09:53:19;13.95;;;11.38;;
34765;SDS011;20984;43.508;1.504;2023-03-01T10:06:36;16.65;;;13.13;;
34765;SDS011;20984;43.508;1.504;2023-03-01T10:09:13;18.83;;;13.23;;
34765;SDS011;20984;43.508;1.504;2023-03-01T10:11:43;13.85;;;11.95;;
34765;SDS011;20984;43.508;1.504;2023-03-01T10:17:00;15.73;;;13.95;;
34765;SDS011;20984;43.508;1.504;2023-03-01T10:19:47;18.10;;;14.13;;
34765;SDS011;20984;43.508;1.504;2023-03-01T10:22:15;15.63;;;13.48;;
34765;SDS011;20984;43.508;1.504;2023-03-01T10:24:43;19.92;;;13.73;;
34765;SDS011;20984;43.508;1.504;2023-03-01T10:27:34;18.00;;;14.15;;
34765;SDS011;20984;43.508;1.504;2023-03-01T10:30:32;19.83;;;13.73;;
34765;SDS011;20984;43.508;1.504;2023-03-01T10:33:08;19.80;;;14.88;;
34765;SDS011;20984;43.508;1.504;2023-03-01T10:35:45;17.48;;;13.98;;
34765;SDS011;20984;43.508;1.504;2023-03-01T10:38:13;19.85;;;15.38;;
34765;SDS011;20984;43.508;1.504;2023-03-01T10:43:27;20.42;;;14.60;;
34765;SDS011;20984;43.508;1.504;2023-03-01T10:46:15;16.55;;;13.68;;
34765;SDS011;20984;43.508;1.504;2023-03-01T10:51:51;16.85;;;13.00;;
34765;SDS011;20984;43.508;1.504;2023-03-01T10:56:57;14.30;;;11.55;;
34765;SDS011;20984;43.508;1.504;2023-03-01T11:04:58;12.70;;;10.63;;
34765;SDS011;20984;43.508;1.504;2023-03-01T11:07:54;13.27;;;10.73;;
34765;SDS011;20984;43.508;1.504;2023-03-01T11:10:25;10.45;;;9.40;;
34765;SDS011;20984;43.508;1.504;2023-03-01T11:13:09;12.10;;;10.18;;
34765;SDS011;20984;43.508;1.504;2023-03-01T11:15:43;12.60;;;9.73;;
34765;SDS011;20984;43.508;1.504;2023-03-01T11:18:27;13.68;;;10.65;;
34765;SDS011;20984;43.508;1.504;2023-03-01T11:20:55;10.40;;;9.10;;
34765;SDS011;20984;43.508;1.504;2023-03-01T11:23:22;13.00;;;10.55;;
34765;SDS011;20984;43.508;1.504;2023-03-01T11:25:52;11.15;;;10.05;;
34765;SDS011;20984;43.508;1.504;2023-03-01T11:28:25;11.00;;;9.82;;
34765;SDS011;20984;43.508;1.504;2023-03-01T11:36:16;9.80;;;8.70;;
34765;SDS011;20984;43.508;1.504;2023-03-01T11:38:54;11.07;;;9.88;;
34765;SDS011;20984;43.508;1.504;2023-03-01T11:41:21;11.65;;;10.27;;
34765;SDS011;20984;43.508;1.504;2023-03-01T12:09:02;12.70;;;10.68;;
34765;SDS011;20984;43.508;1.504;2023-03-01T12:20:02;10.38;;;9.32;;
34765;SDS011;20984;43.508;1.504;2023-03-01T12:25:38;9.52;;;8.63;;
34765;SDS011;20984;43.508;1.504;2023-03-01T12:38:32;10.52;;;9.15;;
34765;SDS011;20984;43.508;1.504;2023-03-01T12:43:56;11.50;;;9.20;;
34765;SDS011;20984;43.508;1.504;2023-03-01T12:52:10;12.52;;;10.65;;
34765;SDS011;20984;43.508;1.504;2023-03-01T12:54:55;10.23;;;9.18;;
34765;SDS011;20984;43.508;1.504;2023-03-01T13:05:34;10.63;;;9.20;;
34765;SDS011;20984;43.508;1.504;2023-03-01T13:08:14;10.55;;;9.55;;
34765;SDS011;20984;43.508;1.504;2023-03-01T13:11:18;12.85;;;9.23;;
34765;SDS011;20984;43.508;1.504;2023-03-01T13:13:48;12.20;;;9.32;;
34765;SDS011;20984;43.508;1.504;2023-03-01T13:17:01;12.57;;;9.70;;
34765;SDS011;20984;43.508;1.504;2023-03-01T13:21:44;10.93;;;9.82;;
34765;SDS011;20984;43.508;1.504;2023-03-01T13:32:27;10.32;;;9.38;;
34765;SDS011;20984;43.508;1.504;2023-03-01T13:37:25;10.48;;;9.38;;
34765;SDS011;20984;43.508;1.504;2023-03-01T13:39:54;9.48;;;8.63;;
34765;SDS011;20984;43.508;1.504;2023-03-01T13:42:33;10.85;;;9.65;;
34765;SDS011;20984;43.508;1.504;2023-03-01T13:45:20;11.05;;;9.88;;
34765;SDS011;20984;43.508;1.504;2023-03-01T13:47:47;14.65;;;9.23;;
34765;SDS011;20984;43.508;1.504;2023-03-01T13:50:28;10.25;;;9.10;;
34765;SDS011;20984;43.508;1.504;2023-03-01T13:52:59;10.35;;;9.35;;
34765;SDS011;20984;43.508;1.504;2023-03-01T13:55:44;10.85;;;9.70;;
34765;SDS011;20984;43.508;1.504;2023-03-01T14:00:58;11.98;;;8.68;;
34765;SDS011;20984;43.508;1.504;2023-03-01T14:03:32;9.93;;;8.93;;
34765;SDS011;20984;43.508;1.504;2023-03-01T14:06:15;10.02;;;9.00;;
34765;SDS011;20984;43.508;1.504;2023-03-01T14:08:44;12.27;;;9.15;;
34765;SDS011;20984;43.508;1.504;2023-03-01T14:19:15;9.00;;;8.10;;
34765;SDS011;20984;43.508;1.504;2023-03-01T14:21:57;10.95;;;9.30;;
34765;SDS011;20984;43.508;1.504;2023-03-01T14:24:46;12.40;;;9.70;;
34765;SDS011;20984;43.508;1.504;2023-03-01T14:27:25;12.93;;;9.80;;
34765;SDS011;20984;43.508;1.504;2023-03-01T14:30:02;13.88;;;9.07;;
34765;SDS011;20984;43.508;1.504;2023-03-01T14:32:35;8.00;;;7.25;;
34765;SDS011;20984;43.508;1.504;2023-03-01T14:35:00;10.20;;;8.48;;
34765;SDS011;20984;43.508;1.504;2023-03-01T14:37:28;9.93;;;8.85;;
34765;SDS011;20984;43.508;1.504;2023-03-01T14:39:57;9.50;;;8.40;;
34765;SDS011;20984;43.508;1.504;2023-03-01T14:42:25;10.48;;;9.35;;
34765;SDS011;20984;43.508;1.504;2023-03-01T14:44:55;10.32;;;8.55;;
34765;SDS011;20984;43.508;1.504;2023-03-01T14:47:26;12.35;;;9.77;;
34765;SDS011;20984;43.508;1.504;2023-03-01T14:52:34;9.77;;;8.82;;
34765;SDS011;20984;43.508;1.504;2023-03-01T14:55:13;11.10;;;8.77;;
34765;SDS011;20984;43.508;1.504;2023-03-01T14:57:51;9.68;;;8.07;;
34765;SDS011;20984;43.508;1.504;2023-03-01T15:00:19;11.15;;;9.57;;
34765;SDS011;20984;43.508;1.504;2023-03-01T15:02:51;11.05;;;9.98;;
34765;SDS011;20984;43.508;1.504;2023-03-01T15:05:22;10.45;;;9.30;;
34765;SDS011;20984;43.508;1.504;2023-03-01T15:07:58;10.27;;;9.15;;
34765;SDS011;20984;43.508;1.504;2023-03-01T15:10:33;10.45;;;8.98;;
34765;SDS011;20984;43.508;1.504;2023-03-01T15:13:13;9.43;;;8.23;;
34765;SDS011;20984;43.508;1.504;2023-03-01T15:15:46;9.27;;;8.40;;
34765;SDS011;20984;43.508;1.504;2023-03-01T15:20:42;9.98;;;8.50;;
34765;SDS011;20984;43.508;1.504;2023-03-01T15:23:16;9.02;;;8.13;;
34765;SDS011;20984;43.508;1.504;2023-03-01T15:25:44;9.45;;;8.35;;
34765;SDS011;20984;43.508;1.504;2023-03-01T15:28:17;11.30;;;9.23;;
34765;SDS011;20984;43.508;1.504;2023-03-01T15:30:45;11.13;;;9.57;;
34765;SDS011;20984;43.508;1.504;2023-03-01T15:35:53;11.95;;;8.65;;
34765;SDS011;20984;43.508;1.504;2023-03-01T15:40:52;14.05;;;9.80;;
34765;SDS011;20984;43.508;1.504;2023-03-01T15:48:54;13.48;;;9.43;;
34765;SDS011;20984;43.508;1.504;2023-03-01T15:51:28;10.10;;;9.05;;
34765;SDS011;20984;43.508;1.504;2023-03-01T15:53:58;10.98;;;9.00;;
34765;SDS011;20984;43.508;1.504;2023-03-01T15:56:28;10.50;;;8.70;;
34765;SDS011;20984;43.508;1.504;2023-03-01T15:58:57;10.75;;;9.50;;
34765;SDS011;20984;43.508;1.504;2023-03-01T16:01:24;9.83;;;8.70;;
34765;SDS011;20984;43.508;1.504;2023-03-01T16:03:50;11.30;;;9.93;;
34765;SDS011;20984;43.508;1.504;2023-03-01T16:06:16;10.32;;;9.20;;
34765;SDS011;20984;43.508;1.504;2023-03-01T16:08:42;13.55;;;11.40;;
34765;SDS011;20984;43.508;1.504;2023-03-01T16:11:15;10.48;;;8.68;;
34765;SDS011;20984;43.508;1.504;2023-03-01T16:13:43;12.05;;;9.35;;
34765;SDS011;20984;43.508;1.504;2023-03-01T16:16:09;10.48;;;9.45;;
34765;SDS011;20984;43.508;1.504;2023-03-01T16:18:41;9.85;;;8.82;;
34765;SDS011;20984;43.508;1.504;2023-03-01T16:21:15;11.45;;;9.05;;
34765;SDS011;20984;43.508;1.504;2023-03-01T16:23:45;10.30;;;9.00;;
34765;SDS011;20984;43.508;1.504;2023-03-01T16:26:11;10.75;;;8.98;;
34765;SDS011;20984;43.508;1.504;2023-03-01T16:28:38;9.25;;;8.35;;
34765;SDS011;20984;43.508;1.504;2023-03-01T16:31:05;10.02;;;9.00;;
34765;SDS011;20984;43.508;1.504;2023-03-01T16:33:31;10.55;;;9.43;;
34765;SDS011;20984;43.508;1.504;2023-03-01T16:35:57;11.40;;;9.20;;
34765;SDS011;20984;43.508;1.504;2023-03-01T16:38:24;11.35;;;9.68;;
34765;SDS011;20984;43.508;1.504;2023-03-01T16:40:51;10.32;;;8.93;;
34765;SDS011;20984;43.508;1.504;2023-03-01T16:43:16;10.55;;;9.05;;
34765;SDS011;20984;43.508;1.504;2023-03-01T16:45:42;11.38;;;9.80;;
34765;SDS011;20984;43.508;1.504;2023-03-01T16:48:09;12.68;;;9.50;;
34765;SDS011;20984;43.508;1.504;2023-03-01T16:50:36;11.25;;;10.02;;
34765;SDS011;20984;43.508;1.504;2023-03-01T16:53:02;10.90;;;9.52;;
34765;SDS011;20984;43.508;1.504;2023-03-01T16:55:27;11.15;;;10.00;;
34765;SDS011;20984;43.508;1.504;2023-03-01T16:57:53;10.90;;;9.88;;
34765;SDS011;20984;43.508;1.504;2023-03-01T17:00:19;11.10;;;9.95;;
34765;SDS011;20984;43.508;1.504;2023-03-01T17:02:45;12.40;;;11.00;;
34765;SDS011;20984;43.508;1.504;2023-03-01T17:05:11;13.73;;;10.68;;
34765;SDS011;20984;43.508;1.504;2023-03-01T17:07:37;12.52;;;9.80;;